Time;durP1;ratioP1;P1;durP2;ratioP2;P2;SDS_P1;SDS_P2;PMS_P1;PMS_P2;Temp;Humidity;BMP_temperature;BMP_pressure;BME280_temperature;BME280_humidity;BME280_pressure;Samples;Min_cycle;Max_cycle;Signal;HPM_P1;HPM_P2
2022/04/07 00:00:22;;;;;;;4.20;2.80;;;;;;;8.77;87.38;98607.02;105151;1273;61841;-75
2022/04/07 00:02:48;;;;;;;6.70;3.00;;;;;;;8.81;86.73;98606.83;105151;1273;74962;-78
2022/04/07 00:05:15;;;;;;;4.90;3.40;;;;;;;8.86;86.42;98606.76;104961;1273;72379;-83
2022/04/07 00:07:42;;;;;;;4.80;2.90;;;;;;;8.87;86.33;98600.08;105190;1273;73937;-88
2022/04/07 00:10:09;;;;;;;4.40;3.40;;;;;;;8.89;85.95;98592.86;105193;1272;63369;-75
2022/04/07 00:12:37;;;;;;;4.00;2.80;;;;;;;8.91;85.53;98588.25;105128;1273;61280;-77
2022/04/07 00:15:07;;;;;;;8.10;4.70;;;;;;;8.93;84.97;98582.93;104863;1275;75104;-78
2022/04/07 00:17:34;;;;;;;7.90;3.40;;;;;;;8.96;84.76;98577.27;105109;1273;72500;-77
2022/04/07 00:20:07;;;;;;;6.80;3.80;;;;;;;8.99;84.31;98570.20;105074;1273;74013;-83
2022/04/07 00:22:34;;;;;;;5.30;3.70;;;;;;;9.00;83.89;98558.73;105112;1273;63002;-76
2022/04/07 00:25:02;;;;;;;4.50;3.20;;;;;;;9.03;83.37;98557.30;105259;1273;61358;-83
2022/04/07 00:27:29;;;;;;;7.10;3.80;;;;;;;9.07;82.98;98547.88;105253;1273;74966;-75
2022/04/07 00:30:09;;;;;;;6.70;3.80;;;;;;;9.08;82.79;98534.36;105119;1273;72407;-80
2022/04/07 00:32:41;;;;;;;7.40;3.50;;;;;;;9.06;82.79;98533.27;105138;1273;72948;-76
2022/04/07 00:35:09;;;;;;;7.40;3.60;;;;;;;8.99;82.95;98542.77;105106;1272;62122;-75
2022/04/07 00:37:38;;;;;;;4.10;3.10;;;;;;;8.97;82.24;98533.36;105148;1273;61398;-77
2022/04/07 00:40:13;;;;;;;9.30;3.40;;;;;;;8.96;82.36;98529.14;105154;1273;74924;-75
2022/04/07 00:42:47;;;;;;;7.10;3.10;;;;;;;8.97;82.01;98522.34;105122;1273;72692;-82
2022/04/07 00:45:15;;;;;;;5.70;3.70;;;;;;;8.95;81.66;98515.83;105002;1273;73377;-81
2022/04/07 00:47:54;;;;;;;4.00;2.90;;;;;;;8.95;81.82;98517.10;105160;1273;62241;-79
2022/04/07 00:50:21;;;;;;;7.60;4.20;;;;;;;8.93;82.02;98508.73;105191;1273;61340;-74
2022/04/07 00:52:55;;;;;;;7.80;3.70;;;;;;;8.91;82.00;98503.39;105002;1273;76165;-76
2022/04/07 00:55:34;;;;;;;11.40;3.40;;;;;;;8.92;81.90;98499.34;105196;1273;72120;-75
2022/04/07 00:58:01;;;;;;;4.10;2.50;;;;;;;8.94;81.90;98483.51;105240;1271;74166;-81
2022/04/07 01:00:30;;;;;;;7.20;3.70;;;;;;;8.96;81.63;98482.44;105251;1273;61323;-78
2022/04/07 01:02:56;;;;;;;5.00;3.00;;;;;;;8.98;81.24;98475.25;105256;1273;61245;-72
2022/04/07 01:05:23;;;;;;;5.10;2.90;;;;;;;9.04;80.58;98470.35;105104;1273;75719;-72
2022/04/07 01:07:51;;;;;;;6.50;3.10;;;;;;;9.08;80.60;98464.21;105013;1273;71613;-72
2022/04/07 01:10:20;;;;;;;6.50;3.00;;;;;;;9.06;80.70;98464.75;105094;1273;72631;-68
2022/04/07 01:12:46;;;;;;;8.80;3.20;;;;;;;9.08;80.36;98462.94;105036;1273;62488;-69
2022/04/07 01:15:13;;;;;;;7.80;2.70;;;;;;;9.11;80.25;98463.08;105031;1273;61258;-72
2022/04/07 01:17:40;;;;;;;5.40;3.00;;;;;;;9.14;79.78;98461.38;105020;1273;74957;-71
2022/04/07 01:20:07;;;;;;;6.00;3.00;;;;;;;9.18;79.91;98461.09;104997;1273;72652;-71
2022/04/07 01:22:41;;;;;;;6.50;2.60;;;;;;;9.19;80.26;98457.94;105182;1273;73992;-70
2022/04/07 01:25:08;;;;;;;5.00;2.80;;;;;;;9.21;80.39;98455.96;105094;1273;62362;-71
2022/04/07 01:27:35;;;;;;;4.80;2.70;;;;;;;9.21;80.66;98465.51;105109;1273;61206;-71
2022/04/07 01:30:08;;;;;;;4.80;2.00;;;;;;;9.22;80.90;98470.17;105068;1273;76028;-71
2022/04/07 01:32:47;;;;;;;3.20;2.30;;;;;;;9.21;82.14;98469.19;104913;1273;72424;-72
2022/04/07 01:35:14;;;;;;;4.70;2.10;;;;;;;9.11;83.91;98465.11;104956;1273;74066;-71
2022/04/07 01:37:44;;;;;;;4.00;2.30;;;;;;;8.99;84.84;98459.99;104910;1273;62684;-70
2022/04/07 01:40:15;;;;;;;4.60;2.50;;;;;;;8.86;86.30;98453.65;105082;1273;61241;-70
2022/04/07 01:42:45;;;;;;;4.50;2.30;;;;;;;8.74;87.32;98451.32;104843;1273;74887;-72
2022/04/07 01:45:13;;;;;;;2.60;1.70;;;;;;;8.65;87.85;98441.45;104843;1273;72101;-72
2022/04/07 01:47:42;;;;;;;3.20;2.20;;;;;;;8.57;87.79;98432.73;104820;1273;74193;-71
2022/04/07 01:50:10;;;;;;;4.30;2.20;;;;;;;8.51;88.40;98425.31;104867;1273;62183;-73
2022/04/07 01:52:39;;;;;;;4.10;1.90;;;;;;;8.45;88.62;98416.30;104925;1272;61456;-72
2022/04/07 01:55:07;;;;;;;2.70;1.30;;;;;;;8.42;89.09;98415.06;104924;1273;73906;-71
2022/04/07 01:57:34;;;;;;;3.70;1.80;;;;;;;8.38;89.15;98411.50;105025;1273;72387;-73
2022/04/07 02:00:04;;;;;;;4.50;2.10;;;;;;;8.35;89.21;98412.38;104912;1273;74163;-71
2022/04/07 02:02:31;;;;;;;4.50;2.00;;;;;;;8.34;89.55;98406.69;105089;1273;62221;-70
2022/04/07 02:04:59;;;;;;;4.30;2.20;;;;;;;8.34;89.67;98403.77;105001;1272;61875;-72
2022/04/07 02:07:31;;;;;;;3.40;1.80;;;;;;;8.35;89.52;98404.20;105071;1273;75973;-70
2022/04/07 02:09:59;;;;;;;3.70;2.10;;;;;;;8.34;90.07;98399.49;105072;1273;73357;-71
2022/04/07 02:12:27;;;;;;;3.60;1.80;;;;;;;8.35;90.35;98396.27;104987;1273;72997;-71
2022/04/07 02:14:54;;;;;;;4.00;1.60;;;;;;;8.33;90.88;98395.24;105059;1273;63518;-71
2022/04/07 02:20:09;;;;;;;4.00;2.00;;;;;;;8.27;92.83;98394.94;105339;1273;75040;-72
2022/04/07 02:22:36;;;;;;;4.20;2.00;;;;;;;8.21;93.55;98401.77;105193;1273;72551;-72
2022/04/07 02:25:04;;;;;;;3.70;2.30;;;;;;;8.17;94.09;98379.25;104950;1274;71780;-73
2022/04/07 02:27:39;;;;;;;7.60;2.80;;;;;;;8.12;94.45;98377.22;104969;1276;62499;-72
2022/04/07 02:30:21;;;;;;;3.40;2.10;;;;;;;8.08;94.62;98373.18;104881;1274;61269;-71
2022/04/07 02:32:56;;;;;;;3.40;2.20;;;;;;;8.05;94.67;98369.92;104885;1276;75104;-73
2022/04/07 02:35:24;;;;;;;4.20;1.80;;;;;;;8.06;93.48;98372.67;105192;1274;71420;-69
2022/04/07 02:37:50;;;;;;;3.50;2.30;;;;;;;8.09;92.94;98359.84;104969;1277;74222;-70
2022/04/07 02:40:20;;;;;;;3.20;1.60;;;;;;;8.13;92.34;98353.52;104924;1274;62335;-69
2022/04/07 02:42:50;;;;;;;4.00;1.50;;;;;;;8.14;91.31;98351.20;105130;1274;61361;-69
2022/04/07 02:45:19;;;;;;;2.20;1.40;;;;;;;8.16;91.44;98336.20;105104;1274;74922;-69
2022/04/07 02:47:46;;;;;;;1.80;1.00;;;;;;;8.14;90.74;98327.79;105131;1273;71160;-70
2022/04/07 02:50:13;;;;;;;2.30;1.30;;;;;;;8.12;90.65;98318.84;104985;1274;72632;-69
2022/04/07 02:52:40;;;;;;;2.30;1.20;;;;;;;8.10;89.91;98319.27;104754;1273;453210;-70
2022/04/07 02:55:09;;;;;;;3.00;1.30;;;;;;;8.09;89.61;98316.10;105122;1274;61625;-72
2022/04/07 02:57:36;;;;;;;1.90;0.90;;;;;;;8.10;88.47;98320.16;104856;1275;76033;-70
2022/04/07 03:00:06;;;;;;;1.90;1.10;;;;;;;8.09;88.44;98298.11;105162;1274;70370;-69
2022/04/07 03:02:36;;;;;;;2.80;1.50;;;;;;;8.08;88.31;98304.00;105126;1273;72973;-71
2022/04/07 03:05:04;;;;;;;4.00;1.80;;;;;;;8.09;88.10;98308.30;104958;1275;62351;-72
2022/04/07 03:07:30;;;;;;;2.00;1.40;;;;;;;8.11;88.25;98290.92;105173;1274;61942;-70
2022/04/07 03:09:57;;;;;;;3.90;1.40;;;;;;;8.10;88.50;98289.86;105183;1274;61230;-69
2022/04/07 03:12:26;;;;;;;2.70;1.20;;;;;;;8.12;87.83;98289.31;105049;1275;62213;-73
2022/04/07 03:14:53;;;;;;;4.10;1.50;;;;;;;8.14;88.18;98283.43;104824;1277;72973;-71
2022/04/07 03:17:20;;;;;;;2.50;1.00;;;;;;;8.14;88.30;98272.51;105072;1274;62428;-69
2022/04/07 03:19:52;;;;;;;4.10;1.30;;;;;;;8.13;87.89;98269.75;105019;1273;61359;-71
2022/04/07 03:22:28;;;;;;;3.70;1.10;;;;;;;8.14;87.37;98260.64;104893;1274;76100;-72
2022/04/07 03:24:55;;;;;;;3.10;1.40;;;;;;;8.12;87.70;98256.96;105003;1274;70616;-69
2022/04/07 03:27:25;;;;;;;1.40;0.80;;;;;;;8.08;87.67;98246.73;104820;1276;72212;-69
2022/04/07 03:29:52;;;;;;;3.10;1.10;;;;;;;8.11;87.52;98261.61;105022;1274;61476;-70
2022/04/07 03:32:19;;;;;;;2.30;1.30;;;;;;;8.10;87.85;98257.64;105124;1273;61775;-70
2022/04/07 03:34:51;;;;;;;1.60;1.00;;;;;;;8.09;87.97;98252.57;104963;1274;75019;-68
2022/04/07 03:37:20;;;;;;;3.70;1.60;;;;;;;8.07;88.15;98249.35;105067;1274;71582;-68
2022/04/07 03:39:47;;;;;;;5.00;1.90;;;;;;;8.06;87.98;98245.73;105086;1273;73971;-70
2022/04/07 03:42:17;;;;;;;1.70;1.00;;;;;;;8.07;87.51;98241.79;105123;1274;61294;-69
2022/04/07 03:44:44;;;;;;;4.10;1.60;;;;;;;8.07;87.23;98239.02;105405;1261;150744;-71
2022/04/07 03:47:10;;;;;;;3.10;1.50;;;;;;;8.10;86.49;98238.99;104793;1276;73620;-73
2022/04/07 03:49:38;;;;;;;10.70;2.00;;;;;;;8.14;86.03;98235.37;104840;1274;72997;-73
2022/04/07 03:52:05;;;;;;;3.70;1.60;;;;;;;8.16;85.96;98228.45;104966;1273;73059;-69
2022/04/07 03:54:32;;;;;;;4.20;1.60;;;;;;;8.21;85.60;98227.46;105003;1273;62544;-69
2022/04/07 03:56:58;;;;;;;4.20;1.30;;;;;;;8.24;85.20;98231.51;105036;1274;61310;-72
2022/04/07 03:59:25;;;;;;;4.10;1.60;;;;;;;8.29;84.57;98224.86;104972;1273;61134;-73
2022/04/07 04:01:51;;;;;;;1.90;1.10;;;;;;;8.34;84.27;98220.12;105086;1273;70466;-71
2022/04/07 04:04:20;;;;;;;5.30;1.60;;;;;;;8.37;84.21;98216.52;105069;1274;73173;-69
2022/04/07 04:06:47;;;;;;;2.00;0.90;;;;;;;8.37;84.18;98209.55;104822;1274;62044;-71
2022/04/07 04:09:14;;;;;;;2.50;1.30;;;;;;;8.41;83.24;98206.33;104802;1275;61220;-70
2022/04/07 04:11:41;;;;;;;3.00;1.40;;;;;;;8.43;83.33;98200.86;105012;1274;75969;-70
2022/04/07 04:14:07;;;;;;;4.00;1.20;;;;;;;8.44;83.40;98200.31;104733;1274;72352;-71
2022/04/07 04:16:34;;;;;;;4.70;1.60;;;;;;;8.46;83.10;98190.54;104838;1273;72987;-67
2022/04/07 04:19:01;;;;;;;2.70;1.20;;;;;;;8.48;83.04;98190.60;105033;1273;61649;-71
2022/04/07 04:21:28;;;;;;;2.80;1.20;;;;;;;8.52;82.37;98185.15;105031;1274;61916;-70
2022/04/07 04:23:54;;;;;;;3.10;1.30;;;;;;;8.55;82.28;98187.46;104809;1275;75989;-72
2022/04/07 04:26:21;;;;;;;5.00;1.50;;;;;;;8.59;81.94;98176.19;104864;1274;73136;-69
2022/04/07 04:28:47;;;;;;;5.20;1.30;;;;;;;8.61;81.94;98167.41;104785;1273;74136;-73
2022/04/07 04:31:14;;;;;;;5.20;1.50;;;;;;;8.64;81.85;98170.08;104817;1274;61390;-72
2022/04/07 04:33:41;;;;;;;3.70;1.50;;;;;;;8.66;81.60;98159.66;104865;1274;61247;-74
2022/04/07 04:36:08;;;;;;;2.80;1.10;;;;;;;8.68;81.31;98162.68;104685;1274;75001;-71
2022/04/07 04:38:35;;;;;;;1.20;0.90;;;;;;;8.71;81.24;98151.19;104815;1274;72648;-69
2022/04/07 04:41:02;;;;;;;1.80;0.90;;;;;;;8.73;80.92;98147.70;104765;1274;72963;-73
2022/04/07 04:43:30;;;;;;;2.00;1.00;;;;;;;8.76;80.87;98155.27;104879;1273;62015;-71
2022/04/07 04:45:59;;;;;;;4.30;1.10;;;;;;;8.78;80.35;98140.98;104895;1274;61292;-70
2022/04/07 04:48:26;;;;;;;3.30;0.90;;;;;;;8.80;80.21;98145.40;104918;1273;73641;-69
2022/04/07 04:50:56;;;;;;;2.40;0.80;;;;;;;8.84;79.86;98146.65;104737;1274;72532;-70
2022/04/07 04:53:23;;;;;;;2.40;1.10;;;;;;;8.86;79.92;98147.11;104892;1273;74050;-72
2022/04/07 04:55:50;;;;;;;1.70;0.80;;;;;;;8.87;80.02;98142.70;104906;1274;62990;-69
2022/04/07 04:58:17;;;;;;;6.10;1.10;;;;;;;8.89;79.23;98135.45;104950;1274;61237;-72
2022/04/07 05:00:43;;;;;;;4.30;1.10;;;;;;;8.93;79.19;98133.28;104895;1274;76284;-70
2022/04/07 05:03:10;;;;;;;1.60;0.90;;;;;;;8.97;78.89;98134.80;104901;1274;72385;-72
2022/04/07 05:05:37;;;;;;;2.20;0.80;;;;;;;9.02;78.65;98140.20;104878;1273;73200;-70
2022/04/07 05:08:04;;;;;;;1.90;0.80;;;;;;;9.05;78.53;98127.84;104780;1276;61151;-70
2022/04/07 05:10:30;;;;;;;1.60;0.80;;;;;;;9.06;78.59;98122.59;104885;1273;61216;-72
2022/04/07 05:12:58;;;;;;;3.60;1.10;;;;;;;9.06;78.61;98113.06;104686;1274;74903;-70
2022/04/07 05:15:25;;;;;;;0.80;0.60;;;;;;;9.05;78.84;98116.91;104890;1273;71261;-73
2022/04/07 05:17:52;;;;;;;2.10;1.30;;;;;;;9.04;78.66;98106.36;104658;1274;72924;-68
2022/04/07 05:20:21;;;;;;;2.60;0.70;;;;;;;9.06;78.37;98108.27;104977;1274;61361;-71
2022/04/07 05:22:47;;;;;;;3.60;0.80;;;;;;;9.10;77.84;98088.02;104955;1273;61189;-71
2022/04/07 05:25:14;;;;;;;1.40;0.80;;;;;;;9.10;77.70;98082.44;104907;1273;74887;-69
2022/04/07 05:27:42;;;;;;;3.70;0.70;;;;;;;9.13;77.19;98081.98;104839;1273;61357;-71
2022/04/07 05:30:12;;;;;;;1.30;0.60;;;;;;;9.17;77.08;98081.44;104867;1273;72934;-71
2022/04/07 05:32:39;;;;;;;3.00;0.60;;;;;;;9.19;77.13;98075.61;104862;1273;61154;-69
2022/04/07 05:35:08;;;;;;;1.90;0.70;;;;;;;9.20;76.86;98065.84;104936;1273;61236;-72
2022/04/07 05:37:36;;;;;;;2.20;0.70;;;;;;;9.23;76.56;98058.62;104747;1276;74867;-71
2022/04/07 05:40:04;;;;;;;3.40;0.70;;;;;;;9.27;76.71;98060.91;104800;1274;71045;-72
2022/04/07 05:42:31;;;;;;;1.60;0.60;;;;;;;9.31;76.21;98058.67;104738;1274;74397;-71
2022/04/07 05:44:57;;;;;;;2.10;0.80;;;;;;;9.36;75.92;98051.64;104615;1274;62474;-71
2022/04/07 05:47:24;;;;;;;2.20;0.70;;;;;;;9.38;75.43;98056.35;104856;1273;61330;-68
2022/04/07 05:49:54;;;;;;;1.80;0.70;;;;;;;9.42;75.00;98052.30;104913;1273;75102;-71
2022/04/07 05:52:21;;;;;;;6.20;0.70;;;;;;;9.46;75.07;98034.23;104884;1274;72400;-70
2022/04/07 05:54:48;;;;;;;1.20;0.70;;;;;;;9.53;74.21;98053.63;104890;1274;72987;-71
2022/04/07 05:57:15;;;;;;;6.30;0.70;;;;;;;9.62;73.30;98035.13;104812;1273;62256;-73
2022/04/07 05:59:41;;;;;;;3.20;1.00;;;;;;;9.73;72.92;98029.09;104681;1274;61275;-72
2022/04/07 06:02:08;;;;;;;1.50;0.70;;;;;;;9.82;72.54;98023.83;104631;1276;61252;-72
2022/04/07 06:04:39;;;;;;;2.50;0.80;;;;;;;9.90;72.69;98014.50;104747;1274;71519;-71
2022/04/07 06:07:05;;;;;;;1.10;0.40;;;;;;;9.94;72.96;98012.97;104841;1274;74152;-72
2022/04/07 06:09:34;;;;;;;5.00;0.90;;;;;;;9.97;72.33;98002.81;104849;1273;62983;-73
2022/04/07 06:12:01;;;;;;;3.40;0.80;;;;;;;10.00;72.54;97998.58;104768;1274;61285;-70
2022/04/07 06:14:28;;;;;;;1.90;0.70;;;;;;;10.03;72.08;97991.85;104788;1278;74951;-71
2022/04/07 06:16:54;;;;;;;2.20;0.60;;;;;;;10.05;71.91;97988.23;104868;1273;61428;-72
2022/04/07 06:19:21;;;;;;;1.10;0.50;;;;;;;10.09;71.91;97981.95;104700;1276;61377;-70
2022/04/07 06:21:47;;;;;;;1.70;0.60;;;;;;;10.16;71.50;97977.67;104864;1273;61263;-71
2022/04/07 06:24:15;;;;;;;1.30;0.70;;;;;;;10.24;70.70;97972.87;104872;1273;61355;-69
2022/04/07 06:26:41;;;;;;;5.00;0.90;;;;;;;10.27;70.46;97959.63;104921;1274;74044;-72
2022/04/07 06:29:08;;;;;;;4.00;0.60;;;;;;;10.28;70.25;97949.66;104872;1274;61252;-70
2022/04/07 06:31:34;;;;;;;2.80;0.70;;;;;;;10.27;70.34;97955.02;104809;1273;61330;-72
2022/04/07 06:34:04;;;;;;;1.30;0.60;;;;;;;10.27;70.70;97947.43;104698;1274;62266;-72
2022/04/07 06:36:34;;;;;;;1.20;0.50;;;;;;;10.28;70.72;97922.59;104834;1273;61337;-72
2022/04/07 06:39:01;;;;;;;2.40;0.60;;;;;;;10.29;70.16;97931.07;104896;1274;75970;-71
2022/04/07 06:41:28;;;;;;;3.80;0.60;;;;;;;10.35;69.43;97928.77;104843;1273;72765;-72
2022/04/07 06:43:54;;;;;;;2.30;0.70;;;;;;;10.45;69.38;97906.89;104867;1273;74149;-71
2022/04/07 06:46:21;;;;;;;2.60;0.70;;;;;;;10.55;69.07;97891.83;104878;1273;61360;-72
2022/04/07 06:48:47;;;;;;;2.60;0.60;;;;;;;10.69;67.99;97898.15;104993;1273;61596;-68
2022/04/07 06:51:14;;;;;;;3.80;0.60;;;;;;;10.87;67.87;97885.94;104874;1274;61269;-71
2022/04/07 06:53:41;;;;;;;3.20;0.70;;;;;;;10.95;67.65;97879.23;104923;1274;72619;-72
2022/04/07 06:56:08;;;;;;;1.00;0.60;;;;;;;10.90;67.06;97872.45;104938;1273;61352;-72
2022/04/07 06:58:36;;;;;;;2.90;0.90;;;;;;;10.83;67.29;97854.33;104850;1274;62321;-69
2022/04/07 07:01:02;;;;;;;1.70;0.60;;;;;;;10.77;67.35;97849.15;104904;1273;61746;-71
2022/04/07 07:03:33;;;;;;;1.10;0.40;;;;;;;10.74;67.92;97836.60;104736;1274;75014;-72
2022/04/07 07:06:00;;;;;;;3.90;2.00;;;;;;;10.67;68.56;97832.33;104927;1273;61314;-71
2022/04/07 07:08:27;;;;;;;1.70;0.50;;;;;;;10.59;69.11;97833.23;104933;1274;72954;-72
2022/04/07 07:10:53;;;;;;;2.60;0.70;;;;;;;10.51;69.59;97830.80;104719;1277;61747;-73
2022/04/07 07:13:22;;;;;;;3.70;0.60;;;;;;;10.43;69.76;97840.59;104950;1274;61263;-69
2022/04/07 07:15:52;;;;;;;2.50;0.60;;;;;;;10.37;70.33;97840.25;105288;1274;75000;-71
2022/04/07 07:18:19;;;;;;;1.30;0.30;;;;;;;10.30;70.65;97840.93;105282;1274;71176;-70
2022/04/07 07:20:46;;;;;;;3.40;0.50;;;;;;;10.26;71.21;97836.52;105324;1274;72929;-69
2022/04/07 07:23:13;;;;;;;2.40;0.60;;;;;;;10.22;71.47;97840.38;105227;1273;61184;-69
2022/04/07 07:25:39;;;;;;;1.70;0.80;;;;;;;10.19;71.64;97829.27;105253;1273;61690;-69
2022/04/07 07:28:06;;;;;;;0.60;0.30;;;;;;;10.19;71.74;97819.94;105151;1273;76181;-69
2022/04/07 07:30:33;;;;;;;1.40;0.70;;;;;;;10.20;71.96;97806.77;105070;1273;71183;-70
2022/04/07 07:33:01;;;;;;;4.10;0.60;;;;;;;10.19;72.28;97794.66;104787;1275;74252;-73
2022/04/07 07:35:28;;;;;;;3.00;0.60;;;;;;;10.19;72.29;97792.60;104865;1274;61271;-72
2022/04/07 07:38:03;;;;;;;1.10;0.60;;;;;;;10.19;72.66;97785.57;104926;1273;61658;-68
2022/04/07 07:40:31;;;;;;;;;;;;;;;10.20;72.64;97776.89;104954;1274;75889;-71
2022/04/07 07:43:00;;;;;;;1.30;0.40;;;;;;;10.20;72.75;97772.22;104902;1274;73261;-71
2022/04/07 07:45:32;;;;;;;1.30;0.40;;;;;;;10.24;73.11;97761.63;104965;1273;72973;-71
2022/04/07 07:48:28;;;;;;;1.10;0.30;;;;;;;10.27;72.95;97747.08;104870;1273;61353;-71
2022/04/07 07:50:56;;;;;;;1.20;0.50;;;;;;;10.29;72.96;97735.73;104891;1273;61242;-70
2022/04/07 07:53:23;;;;;;;1.90;0.90;;;;;;;10.32;73.16;97734.19;104801;1275;76109;-70
2022/04/07 07:55:50;;;;;;;0.80;0.40;;;;;;;10.33;73.39;97726.95;104946;1273;71226;-71
2022/04/07 07:58:17;;;;;;;1.20;0.90;;;;;;;10.35;73.64;97716.08;104665;1275;72868;-73
2022/04/07 08:00:43;;;;;;;0.60;0.30;;;;;;;10.36;73.94;97714.48;104707;1274;62369;-73
2022/04/07 08:03:10;;;;;;;0.90;0.50;;;;;;;10.36;73.64;97713.41;104920;1274;61224;-73
2022/04/07 08:05:37;;;;;;;2.30;0.50;;;;;;;10.37;73.91;97706.81;104954;1273;75941;-70
2022/04/07 08:08:04;;;;;;;0.80;0.40;;;;;;;10.40;73.90;97694.82;104854;1274;72307;-71
2022/04/07 08:10:31;;;;;;;0.60;0.30;;;;;;;10.46;73.94;97691.27;104917;1274;73123;-71
2022/04/07 08:12:58;;;;;;;0.80;0.30;;;;;;;10.52;74.01;97680.96;104931;1273;62314;-69
2022/04/07 08:15:24;;;;;;;0.80;0.30;;;;;;;10.57;73.62;97680.59;104929;1274;61333;-68
2022/04/07 08:17:51;;;;;;;0.50;0.20;;;;;;;10.65;73.16;97668.89;104988;1274;76177;-69
2022/04/07 08:20:18;;;;;;;1.20;0.30;;;;;;;10.70;73.20;97664.45;104912;1274;72928;-72
2022/04/07 08:22:45;;;;;;;1.70;0.50;;;;;;;10.74;73.37;97670.16;104887;1274;71750;-72
2022/04/07 08:25:11;;;;;;;1.60;0.30;;;;;;;10.74;73.08;97664.59;104874;1274;62755;-72
2022/04/07 08:27:38;;;;;;;0.20;0.20;;;;;;;10.74;73.38;97670.68;104943;1274;62431;-73
2022/04/07 08:30:05;;;;;;;0.60;0.10;;;;;;;10.70;74.26;97666.88;104751;1275;76320;-69
2022/04/07 08:32:33;;;;;;;1.30;0.50;;;;;;;10.63;75.51;97665.01;104954;1274;71543;-73
2022/04/07 08:35:02;;;;;;;0.40;0.20;;;;;;;10.54;77.04;97651.73;104867;1274;74013;-76
2022/04/07 08:37:30;;;;;;;0.80;0.40;;;;;;;10.41;78.30;97650.09;104939;1274;62511;-71
2022/04/07 08:39:56;;;;;;;0.40;0.10;;;;;;;10.29;79.49;97655.56;104740;1276;61202;-70
2022/04/07 08:42:26;;;;;;;0.60;0.20;;;;;;;10.17;81.00;97646.71;105042;1274;74873;-70
2022/04/07 08:44:53;;;;;;;0.60;0.30;;;;;;;10.04;82.25;97647.47;104878;1277;70124;-69
2022/04/07 08:47:21;;;;;;;0.20;0.20;;;;;;;9.92;83.44;97638.43;105159;1274;72718;-71
2022/04/07 08:49:52;;;;;;;0.60;0.40;;;;;;;9.84;83.87;97634.83;104852;1277;63121;-78
2022/04/07 08:52:19;;;;;;;1.10;0.40;;;;;;;9.76;84.33;97647.27;105028;1277;61390;-81
2022/04/07 08:54:47;;;;;;;2.10;0.40;;;;;;;9.72;85.38;97638.21;105176;1274;76261;-72
2022/04/07 08:57:15;;;;;;;0.50;0.30;;;;;;;9.66;86.04;97637.23;105078;1274;71097;-81
2022/04/07 08:59:42;;;;;;;1.20;1.00;;;;;;;9.57;86.99;97617.27;105069;1274;73012;-80
2022/04/07 09:02:12;;;;;;;2.30;1.40;;;;;;;9.46;87.79;97606.05;104951;1277;62430;-83
2022/04/07 09:04:40;;;;;;;0.60;0.40;;;;;;;9.37;88.88;97607.10;105094;1274;61253;-76
2022/04/07 09:07:08;;;;;;;0.40;0.30;;;;;;;9.28;89.99;97605.01;105086;1274;74821;-77
2022/04/07 09:09:38;;;;;;;1.30;0.50;;;;;;;9.19;91.11;97589.11;105066;1274;71488;-70
2022/04/07 09:12:05;;;;;;;0.70;0.30;;;;;;;9.13;91.33;97582.30;104970;1274;74044;-71
2022/04/07 09:14:33;;;;;;;0.70;0.40;;;;;;;9.06;92.24;97575.05;104984;1274;62273;-68
2022/04/07 09:17:03;;;;;;;7.70;3.40;;;;;;;9.00;93.44;97562.06;105071;1274;61295;-71
2022/04/07 09:19:31;;;;;;;1.50;0.50;;;;;;;8.96;93.92;97565.02;104895;1275;76175;-70
2022/04/07 09:22:09;;;;;;;1.40;0.50;;;;;;;9.02;94.49;97556.40;105032;1274;70035;-71
2022/04/07 09:24:37;;;;;;;1.00;0.50;;;;;;;9.14;94.41;97562.17;104865;1277;74398;-71
2022/04/07 09:27:05;;;;;;;0.60;0.40;;;;;;;9.17;94.15;97554.02;104764;1274;61636;-72
2022/04/07 09:29:39;;;;;;;2.20;0.40;;;;;;;9.15;94.27;97539.61;104964;1274;61335;-71
2022/04/07 09:32:27;;;;;;;3.20;0.20;;;;;;;9.09;93.83;97539.94;104989;1274;73917;-69
2022/04/07 09:34:58;;;;;;;0.70;0.50;;;;;;;9.08;94.52;97543.77;104781;1278;72405;-74
2022/04/07 09:37:28;;;;;;;0.20;0.10;;;;;;;9.05;94.51;97541.67;104968;1274;74090;-73
2022/04/07 09:40:09;;;;;;;2.10;1.10;;;;;;;9.03;94.97;97527.79;104742;1275;61766;-72
2022/04/07 09:42:37;;;;;;;4.40;0.40;;;;;;;8.97;94.54;97514.86;104978;1274;61378;-75
2022/04/07 09:45:07;;;;;;;1.20;0.20;;;;;;;8.92;94.69;97507.23;104776;1274;75216;-73
2022/04/07 09:47:45;;;;;;;1.00;0.50;;;;;;;8.87;95.39;97500.70;104771;1274;71269;-71
2022/04/07 09:50:35;;;;;;;0.50;0.50;;;;;;;8.79;95.66;97498.85;104948;1274;73645;-71
2022/04/07 09:53:03;;;;;;;0.90;0.50;;;;;;;8.71;96.32;97486.89;104953;1274;61532;-71
2022/04/07 09:55:40;;;;;;;1.60;0.40;;;;;;;8.69;97.14;97474.11;105002;1274;61263;-71
2022/04/07 09:58:08;;;;;;;0.80;0.40;;;;;;;8.74;97.15;97466.21;104878;1274;74736;-70
2022/04/07 10:00:36;;;;;;;1.00;0.40;;;;;;;8.84;97.47;97444.90;104930;1274;72125;-74
2022/04/07 10:03:04;;;;;;;1.40;0.40;;;;;;;8.95;96.81;97421.83;104975;1274;73031;-73
2022/04/07 10:05:31;;;;;;;1.50;0.30;;;;;;;9.05;97.07;97417.98;104713;1275;64161;-73
2022/04/07 10:07:58;;;;;;;0.50;0.20;;;;;;;9.14;97.10;97399.49;104925;1274;61252;-74
2022/04/07 10:10:26;;;;;;;1.10;0.20;;;;;;;9.21;95.67;97392.58;104873;1274;74948;-74
2022/04/07 10:12:53;;;;;;;0.40;0.20;;;;;;;9.34;95.72;97379.77;104720;1275;72601;-72
2022/04/07 10:15:20;;;;;;;0.80;0.30;;;;;;;9.41;95.80;97377.19;105001;1274;73089;-71
2022/04/07 10:17:49;;;;;;;1.50;0.20;;;;;;;9.46;95.60;97360.10;105149;1274;62156;-73
2022/04/07 10:20:32;;;;;;;;;;;;;;;9.47;95.33;97353.55;104982;1274;61240;-72
2022/04/07 10:23:25;;;;;;;0.30;0.30;;;;;;;9.51;94.48;97340.83;104994;1274;75278;-73
2022/04/07 10:25:55;;;;;;;2.60;0.20;;;;;;;9.56;94.37;97326.54;104976;1274;70358;-72
2022/04/07 10:28:24;;;;;;;0.00;0.00;;;;;;;9.63;94.28;97312.72;105052;1274;73044;-71
2022/04/07 10:30:53;;;;;;;0.60;0.20;;;;;;;9.66;93.63;97301.27;104956;1274;62173;-72
2022/04/07 10:33:38;;;;;;;0.40;0.20;;;;;;;9.69;92.78;97285.01;104825;1274;61650;-73
2022/04/07 10:36:20;;;;;;;0.30;0.20;;;;;;;9.72;92.16;97280.80;104893;1274;74937;-68
2022/04/07 10:38:47;;;;;;;;;;;;;;;9.76;92.00;97261.86;105001;1274;71579;-69
2022/04/07 10:41:39;;;;;;;0.20;0.10;;;;;;;9.78;92.33;97275.85;104921;1273;73047;-71
2022/04/07 10:44:13;;;;;;;0.50;0.30;;;;;;;9.75;91.84;97311.56;104963;1274;61813;-72
2022/04/07 10:46:40;;;;;;;0.90;0.50;;;;;;;9.72;92.45;97410.16;104707;1274;61850;-74
2022/04/07 10:49:12;;;;;;;2.00;0.20;;;;;;;9.28;87.05;97495.05;104933;1274;76065;-73
2022/04/07 10:51:50;;;;;;;2.90;0.50;;;;;;;7.82;85.04;97515.53;104973;1274;71257;-68
2022/04/07 10:54:17;;;;;;;1.20;0.50;;;;;;;6.36;90.22;97515.08;105009;1273;72983;-71
2022/04/07 10:56:51;;;;;;;1.10;0.50;;;;;;;5.41;95.70;97543.70;104788;1274;61687;-72
2022/04/07 10:59:20;;;;;;;2.10;0.50;;;;;;;4.88;99.94;97526.91;105098;1274;62376;-71
2022/04/07 11:01:59;;;;;;;0.60;0.30;;;;;;;4.55;100.00;97560.92;104975;1274;76026;-71
2022/04/07 11:04:30;;;;;;;0.30;0.20;;;;;;;4.34;100.00;97558.48;105007;1274;72637;-76
2022/04/07 11:07:09;;;;;;;1.80;0.40;;;;;;;4.23;100.00;97542.64;105018;1273;74480;-71
2022/04/07 11:09:58;;;;;;;0.20;0.10;;;;;;;4.14;100.00;97481.44;104964;1274;61773;-72
2022/04/07 11:12:29;;;;;;;0.40;0.30;;;;;;;4.09;100.00;97439.14;105017;1274;61444;-71
2022/04/07 11:15:31;;;;;;;0.70;0.30;;;;;;;4.09;100.00;97418.37;104860;1274;74907;-71
2022/04/07 11:18:13;;;;;;;0.30;0.20;;;;;;;4.16;100.00;97456.92;104582;1276;70414;-72
2022/04/07 11:21:00;;;;;;;1.00;0.20;;;;;;;4.22;100.00;97462.65;104984;1273;72978;-71
2022/04/07 11:23:53;;;;;;;1.80;0.30;;;;;;;4.26;100.00;97463.03;105013;1274;62462;-71
2022/04/07 11:26:36;;;;;;;0.40;0.30;;;;;;;4.32;100.00;97469.84;104740;1275;61859;-72
2022/04/07 11:29:03;;;;;;;0.40;0.20;;;;;;;4.36;100.00;97444.41;105032;1274;76065;-72
2022/04/07 11:32:05;;;;;;;0.70;0.50;;;;;;;4.41;100.00;97436.90;105003;1273;71573;-72
2022/04/07 11:34:41;;;;;;;0.60;0.20;;;;;;;4.50;100.00;97438.16;104764;1274;73701;-71
2022/04/07 11:37:19;;;;;;;1.50;0.40;;;;;;;4.64;100.00;97471.02;105034;1274;62539;-71
2022/04/07 11:39:51;;;;;;;0.40;0.30;;;;;;;4.83;100.00;97464.66;105068;1274;61381;-71
2022/04/07 11:42:22;;;;;;;1.60;0.40;;;;;;;4.99;100.00;97459.89;105039;1274;75172;-74
2022/04/07 11:45:05;;;;;;;0.80;0.40;;;;;;;5.16;100.00;97473.77;105036;1274;72385;-72